sensor_id;sensor_type;location;lat;lon;timestamp;P1;durP1;ratioP1;P2;durP2;ratioP2
44197;SDS011;30157;55.512;37.764;2023-03-13T00:01:12;1.73;;;1.10;;
44197;SDS011;30157;55.512;37.764;2023-03-13T00:03:42;1.60;;;0.88;;
44197;SDS011;30157;55.512;37.764;2023-03-13T00:06:08;3.03;;;1.00;;
44197;SDS011;30157;55.512;37.764;2023-03-13T00:08:34;1.40;;;0.88;;
44197;SDS011;30157;55.512;37.764;2023-03-13T00:11:02;2.25;;;0.90;;
44197;SDS011;30157;55.512;37.764;2023-03-13T00:13:31;2.08;;;1.13;;
44197;SDS011;30157;55.512;37.764;2023-03-13T00:16:00;1.60;;;0.82;;
44197;SDS011;30157;55.512;37.764;2023-03-13T00:18:27;2.50;;;1.00;;
44197;SDS011;30157;55.512;37.764;2023-03-13T00:20:57;2.38;;;1.05;;
44197;SDS011;30157;55.512;37.764;2023-03-13T00:23:23;2.08;;;0.90;;
44197;SDS011;30157;55.512;37.764;2023-03-13T00:25:54;1.83;;;1.10;;
44197;SDS011;30157;55.512;37.764;2023-03-13T00:28:21;3.97;;;0.98;;
44197;SDS011;30157;55.512;37.764;2023-03-13T00:30:46;1.67;;;0.90;;
44197;SDS011;30157;55.512;37.764;2023-03-13T00:33:12;1.48;;;1.02;;
44197;SDS011;30157;55.512;37.764;2023-03-13T00:35:37;2.30;;;1.25;;
44197;SDS011;30157;55.512;37.764;2023-03-13T00:38:03;1.65;;;0.90;;
44197;SDS011;30157;55.512;37.764;2023-03-13T00:40:29;2.17;;;1.48;;
44197;SDS011;30157;55.512;37.764;2023-03-13T00:42:54;1.30;;;0.98;;
44197;SDS011;30157;55.512;37.764;2023-03-13T00:45:22;2.10;;;1.15;;
44197;SDS011;30157;55.512;37.764;2023-03-13T00:47:48;2.78;;;1.20;;
44197;SDS011;30157;55.512;37.764;2023-03-13T00:50:14;1.33;;;0.80;;
44197;SDS011;30157;55.512;37.764;2023-03-13T00:52:40;4.90;;;1.50;;
44197;SDS011;30157;55.512;37.764;2023-03-13T00:55:06;2.22;;;1.08;;
44197;SDS011;30157;55.512;37.764;2023-03-13T00:57:32;2.55;;;1.50;;
44197;SDS011;30157;55.512;37.764;2023-03-13T01:00:02;2.65;;;1.17;;
44197;SDS011;30157;55.512;37.764;2023-03-13T01:02:30;3.08;;;1.25;;
44197;SDS011;30157;55.512;37.764;2023-03-13T01:04:56;2.08;;;1.20;;
44197;SDS011;30157;55.512;37.764;2023-03-13T01:07:22;3.15;;;1.02;;
44197;SDS011;30157;55.512;37.764;2023-03-13T01:09:48;2.92;;;1.20;;
44197;SDS011;30157;55.512;37.764;2023-03-13T01:12:14;3.10;;;1.33;;
44197;SDS011;30157;55.512;37.764;2023-03-13T01:14:39;2.17;;;1.00;;
44197;SDS011;30157;55.512;37.764;2023-03-13T01:17:05;3.75;;;1.20;;
44197;SDS011;30157;55.512;37.764;2023-03-13T01:19:31;1.50;;;0.95;;
44197;SDS011;30157;55.512;37.764;2023-03-13T01:21:57;2.15;;;1.00;;
44197;SDS011;30157;55.512;37.764;2023-03-13T01:24:23;1.55;;;0.90;;
44197;SDS011;30157;55.512;37.764;2023-03-13T01:26:49;2.88;;;1.02;;
44197;SDS011;30157;55.512;37.764;2023-03-13T01:29:15;1.58;;;1.02;;
44197;SDS011;30157;55.512;37.764;2023-03-13T01:31:40;4.57;;;1.10;;
44197;SDS011;30157;55.512;37.764;2023-03-13T01:34:06;2.05;;;1.20;;
44197;SDS011;30157;55.512;37.764;2023-03-13T01:36:34;1.73;;;0.90;;
44197;SDS011;30157;55.512;37.764;2023-03-13T01:39:00;1.95;;;1.10;;
44197;SDS011;30157;55.512;37.764;2023-03-13T01:41:27;3.38;;;1.15;;
44197;SDS011;30157;55.512;37.764;2023-03-13T01:43:53;1.65;;;0.98;;
44197;SDS011;30157;55.512;37.764;2023-03-13T01:46:20;2.15;;;1.13;;
44197;SDS011;30157;55.512;37.764;2023-03-13T01:49:10;2.92;;;1.08;;
44197;SDS011;30157;55.512;37.764;2023-03-13T01:52:04;2.28;;;0.90;;
44197;SDS011;30157;55.512;37.764;2023-03-13T01:54:54;3.65;;;1.25;;
44197;SDS011;30157;55.512;37.764;2023-03-13T01:57:39;2.63;;;1.30;;
44197;SDS011;30157;55.512;37.764;2023-03-13T02:00:10;1.92;;;1.20;;
44197;SDS011;30157;55.512;37.764;2023-03-13T02:02:45;2.28;;;1.27;;
44197;SDS011;30157;55.512;37.764;2023-03-13T02:05:15;2.08;;;1.30;;
44197;SDS011;30157;55.512;37.764;2023-03-13T02:10:53;2.22;;;1.30;;
44197;SDS011;30157;55.512;37.764;2023-03-13T02:13:26;2.42;;;1.30;;
44197;SDS011;30157;55.512;37.764;2023-03-13T02:15:53;3.38;;;1.05;;
44197;SDS011;30157;55.512;37.764;2023-03-13T02:18:19;2.28;;;1.30;;
44197;SDS011;30157;55.512;37.764;2023-03-13T02:20:45;2.53;;;1.40;;
44197;SDS011;30157;55.512;37.764;2023-03-13T02:23:18;3.97;;;1.50;;
44197;SDS011;30157;55.512;37.764;2023-03-13T02:25:52;2.58;;;1.20;;
44197;SDS011;30157;55.512;37.764;2023-03-13T02:28:24;3.65;;;1.55;;
44197;SDS011;30157;55.512;37.764;2023-03-13T02:30:57;2.00;;;1.20;;
44197;SDS011;30157;55.512;37.764;2023-03-13T02:33:25;3.67;;;1.13;;
44197;SDS011;30157;55.512;37.764;2023-03-13T02:35:54;3.50;;;1.40;;
44197;SDS011;30157;55.512;37.764;2023-03-13T02:38:26;3.55;;;1.60;;
44197;SDS011;30157;55.512;37.764;2023-03-13T02:40:55;3.45;;;1.30;;
44197;SDS011;30157;55.512;37.764;2023-03-13T02:43:28;3.47;;;1.30;;
44197;SDS011;30157;55.512;37.764;2023-03-13T02:46:15;1.48;;;0.90;;
44197;SDS011;30157;55.512;37.764;2023-03-13T02:48:49;2.78;;;1.48;;
44197;SDS011;30157;55.512;37.764;2023-03-13T02:53:59;2.38;;;1.08;;
44197;SDS011;30157;55.512;37.764;2023-03-13T02:56:29;2.25;;;1.33;;
44197;SDS011;30157;55.512;37.764;2023-03-13T02:58:58;3.83;;;1.10;;
44197;SDS011;30157;55.512;37.764;2023-03-13T03:01:25;3.47;;;1.25;;
44197;SDS011;30157;55.512;37.764;2023-03-13T03:03:50;2.75;;;1.42;;
44197;SDS011;30157;55.512;37.764;2023-03-13T03:06:16;1.75;;;1.00;;
44197;SDS011;30157;55.512;37.764;2023-03-13T03:08:43;6.03;;;1.48;;
44197;SDS011;30157;55.512;37.764;2023-03-13T03:11:11;2.65;;;1.23;;
44197;SDS011;30157;55.512;37.764;2023-03-13T03:13:37;2.15;;;1.10;;
44197;SDS011;30157;55.512;37.764;2023-03-13T03:16:07;2.05;;;1.20;;
44197;SDS011;30157;55.512;37.764;2023-03-13T03:18:34;1.75;;;1.20;;
44197;SDS011;30157;55.512;37.764;2023-03-13T03:21:03;3.45;;;1.33;;
44197;SDS011;30157;55.512;37.764;2023-03-13T03:23:33;1.90;;;1.10;;
44197;SDS011;30157;55.512;37.764;2023-03-13T03:26:03;2.10;;;1.30;;
44197;SDS011;30157;55.512;37.764;2023-03-13T03:28:31;2.17;;;1.20;;
44197;SDS011;30157;55.512;37.764;2023-03-13T03:31:03;2.38;;;1.08;;
44197;SDS011;30157;55.512;37.764;2023-03-13T03:33:30;2.60;;;1.20;;
44197;SDS011;30157;55.512;37.764;2023-03-13T03:36:02;3.33;;;1.38;;
44197;SDS011;30157;55.512;37.764;2023-03-13T03:38:30;2.33;;;1.30;;
44197;SDS011;30157;55.512;37.764;2023-03-13T03:40:56;2.63;;;1.48;;
44197;SDS011;30157;55.512;37.764;2023-03-13T03:43:22;2.70;;;1.40;;
44197;SDS011;30157;55.512;37.764;2023-03-13T03:45:48;2.10;;;1.10;;
44197;SDS011;30157;55.512;37.764;2023-03-13T03:48:13;3.15;;;1.80;;
44197;SDS011;30157;55.512;37.764;2023-03-13T03:50:39;3.55;;;1.45;;
44197;SDS011;30157;55.512;37.764;2023-03-13T03:53:05;3.85;;;1.63;;
44197;SDS011;30157;55.512;37.764;2023-03-13T03:55:30;3.97;;;1.60;;
44197;SDS011;30157;55.512;37.764;2023-03-13T03:57:56;3.22;;;1.58;;
44197;SDS011;30157;55.512;37.764;2023-03-13T04:00:47;2.25;;;1.40;;
44197;SDS011;30157;55.512;37.764;2023-03-13T04:03:13;3.22;;;1.83;;
44197;SDS011;30157;55.512;37.764;2023-03-13T04:05:39;3.47;;;1.60;;
44197;SDS011;30157;55.512;37.764;2023-03-13T04:08:06;4.35;;;1.90;;
44197;SDS011;30157;55.512;37.764;2023-03-13T04:10:32;2.88;;;1.50;;
44197;SDS011;30157;55.512;37.764;2023-03-13T04:13:18;5.95;;;1.90;;
44197;SDS011;30157;55.512;37.764;2023-03-13T04:15:44;4.78;;;2.33;;
44197;SDS011;30157;55.512;37.764;2023-03-13T04:18:11;5.78;;;1.98;;
44197;SDS011;30157;55.512;37.764;2023-03-13T04:20:37;5.20;;;2.25;;
44197;SDS011;30157;55.512;37.764;2023-03-13T04:23:03;3.75;;;2.10;;
44197;SDS011;30157;55.512;37.764;2023-03-13T04:25:29;3.40;;;1.80;;
44197;SDS011;30157;55.512;37.764;2023-03-13T04:27:58;3.72;;;1.92;;
44197;SDS011;30157;55.512;37.764;2023-03-13T04:30:30;3.28;;;1.95;;
44197;SDS011;30157;55.512;37.764;2023-03-13T04:35:50;2.67;;;1.40;;
44197;SDS011;30157;55.512;37.764;2023-03-13T04:38:38;2.22;;;1.40;;
44197;SDS011;30157;55.512;37.764;2023-03-13T04:41:14;2.50;;;1.33;;
44197;SDS011;30157;55.512;37.764;2023-03-13T04:43:59;2.85;;;1.40;;
44197;SDS011;30157;55.512;37.764;2023-03-13T04:46:47;2.78;;;1.50;;
44197;SDS011;30157;55.512;37.764;2023-03-13T04:49:32;2.55;;;1.30;;
44197;SDS011;30157;55.512;37.764;2023-03-13T04:52:16;3.60;;;1.60;;
44197;SDS011;30157;55.512;37.764;2023-03-13T04:55:01;3.95;;;1.95;;
44197;SDS011;30157;55.512;37.764;2023-03-13T04:57:42;3.83;;;1.80;;
44197;SDS011;30157;55.512;37.764;2023-03-13T05:00:33;3.25;;;1.70;;
44197;SDS011;30157;55.512;37.764;2023-03-13T05:03:09;3.53;;;1.48;;
44197;SDS011;30157;55.512;37.764;2023-03-13T05:05:57;2.78;;;1.30;;
44197;SDS011;30157;55.512;37.764;2023-03-13T05:08:40;3.53;;;1.30;;
44197;SDS011;30157;55.512;37.764;2023-03-13T05:11:38;3.75;;;1.38;;
44197;SDS011;30157;55.512;37.764;2023-03-13T05:14:33;2.97;;;1.20;;
44197;SDS011;30157;55.512;37.764;2023-03-13T05:17:10;2.40;;;1.25;;
44197;SDS011;30157;55.512;37.764;2023-03-13T05:19:55;2.50;;;1.60;;
44197;SDS011;30157;55.512;37.764;2023-03-13T05:22:28;2.22;;;1.30;;
44197;SDS011;30157;55.512;37.764;2023-03-13T05:25:32;2.08;;;1.40;;
44197;SDS011;30157;55.512;37.764;2023-03-13T05:28:01;1.98;;;1.20;;
44197;SDS011;30157;55.512;37.764;2023-03-13T05:30:46;2.42;;;1.20;;
44197;SDS011;30157;55.512;37.764;2023-03-13T05:33:29;2.80;;;1.20;;
44197;SDS011;30157;55.512;37.764;2023-03-13T05:36:07;2.00;;;1.40;;
44197;SDS011;30157;55.512;37.764;2023-03-13T05:38:41;1.92;;;1.10;;
44197;SDS011;30157;55.512;37.764;2023-03-13T05:41:42;2.72;;;1.23;;
44197;SDS011;30157;55.512;37.764;2023-03-13T05:44:14;2.67;;;1.30;;
44197;SDS011;30157;55.512;37.764;2023-03-13T05:46:59;2.45;;;1.40;;
44197;SDS011;30157;55.512;37.764;2023-03-13T05:49:45;4.00;;;2.08;;
44197;SDS011;30157;55.512;37.764;2023-03-13T05:52:14;2.10;;;1.30;;
44197;SDS011;30157;55.512;37.764;2023-03-13T05:54:43;2.53;;;1.30;;
44197;SDS011;30157;55.512;37.764;2023-03-13T05:57:38;3.17;;;1.25;;
44197;SDS011;30157;55.512;37.764;2023-03-13T06:03:05;1.80;;;1.23;;
44197;SDS011;30157;55.512;37.764;2023-03-13T06:05:42;2.80;;;1.40;;
44197;SDS011;30157;55.512;37.764;2023-03-13T06:08:22;1.63;;;1.20;;
44197;SDS011;30157;55.512;37.764;2023-03-13T06:10:48;2.03;;;1.60;;
44197;SDS011;30157;55.512;37.764;2023-03-13T06:13:14;2.75;;;1.58;;
44197;SDS011;30157;55.512;37.764;2023-03-13T06:15:40;3.60;;;1.63;;
44197;SDS011;30157;55.512;37.764;2023-03-13T06:18:32;2.53;;;1.35;;
44197;SDS011;30157;55.512;37.764;2023-03-13T06:20:58;2.70;;;1.58;;
44197;SDS011;30157;55.512;37.764;2023-03-13T06:23:25;3.17;;;1.60;;
44197;SDS011;30157;55.512;37.764;2023-03-13T06:25:52;3.53;;;1.70;;
44197;SDS011;30157;55.512;37.764;2023-03-13T06:28:18;3.40;;;1.52;;
44197;SDS011;30157;55.512;37.764;2023-03-13T06:30:43;2.65;;;1.50;;
44197;SDS011;30157;55.512;37.764;2023-03-13T06:33:09;3.50;;;1.50;;
44197;SDS011;30157;55.512;37.764;2023-03-13T06:35:38;2.50;;;1.30;;
44197;SDS011;30157;55.512;37.764;2023-03-13T06:38:05;2.13;;;1.15;;
44197;SDS011;30157;55.512;37.764;2023-03-13T06:40:31;2.30;;;1.20;;
44197;SDS011;30157;55.512;37.764;2023-03-13T06:42:57;2.45;;;1.33;;
44197;SDS011;30157;55.512;37.764;2023-03-13T06:45:23;2.78;;;1.40;;
44197;SDS011;30157;55.512;37.764;2023-03-13T06:47:49;3.05;;;1.35;;
44197;SDS011;30157;55.512;37.764;2023-03-13T06:50:16;2.42;;;1.38;;
44197;SDS011;30157;55.512;37.764;2023-03-13T06:52:43;2.67;;;1.38;;
44197;SDS011;30157;55.512;37.764;2023-03-13T06:55:10;2.38;;;1.40;;
44197;SDS011;30157;55.512;37.764;2023-03-13T06:57:36;3.60;;;1.50;;
44197;SDS011;30157;55.512;37.764;2023-03-13T07:00:02;3.95;;;1.63;;
44197;SDS011;30157;55.512;37.764;2023-03-13T07:02:30;2.95;;;1.73;;
44197;SDS011;30157;55.512;37.764;2023-03-13T07:04:56;2.63;;;1.90;;
44197;SDS011;30157;55.512;37.764;2023-03-13T07:07:22;2.95;;;2.00;;
44197;SDS011;30157;55.512;37.764;2023-03-13T07:09:47;4.90;;;1.90;;
44197;SDS011;30157;55.512;37.764;2023-03-13T07:12:13;4.28;;;2.00;;
44197;SDS011;30157;55.512;37.764;2023-03-13T07:14:39;3.03;;;1.92;;
44197;SDS011;30157;55.512;37.764;2023-03-13T07:17:05;3.95;;;1.85;;
44197;SDS011;30157;55.512;37.764;2023-03-13T07:19:30;4.88;;;1.90;;
44197;SDS011;30157;55.512;37.764;2023-03-13T07:21:56;2.95;;;1.70;;
44197;SDS011;30157;55.512;37.764;2023-03-13T07:24:22;3.08;;;1.90;;
44197;SDS011;30157;55.512;37.764;2023-03-13T07:26:48;3.90;;;1.67;;
44197;SDS011;30157;55.512;37.764;2023-03-13T07:29:14;4.60;;;2.13;;
44197;SDS011;30157;55.512;37.764;2023-03-13T07:31:39;4.95;;;1.70;;
44197;SDS011;30157;55.512;37.764;2023-03-13T07:34:05;3.60;;;1.60;;
44197;SDS011;30157;55.512;37.764;2023-03-13T07:36:31;3.05;;;1.80;;
44197;SDS011;30157;55.512;37.764;2023-03-13T07:38:59;2.63;;;1.55;;
44197;SDS011;30157;55.512;37.764;2023-03-13T07:41:25;2.72;;;1.70;;
44197;SDS011;30157;55.512;37.764;2023-03-13T07:43:50;3.50;;;1.80;;
44197;SDS011;30157;55.512;37.764;2023-03-13T07:46:16;2.83;;;1.50;;
44197;SDS011;30157;55.512;37.764;2023-03-13T07:48:44;2.05;;;1.52;;
44197;SDS011;30157;55.512;37.764;2023-03-13T07:51:14;4.05;;;1.50;;
44197;SDS011;30157;55.512;37.764;2023-03-13T07:53:43;2.53;;;1.20;;
44197;SDS011;30157;55.512;37.764;2023-03-13T07:56:10;3.38;;;1.83;;
44197;SDS011;30157;55.512;37.764;2023-03-13T07:58:37;3.38;;;1.60;;
44197;SDS011;30157;55.512;37.764;2023-03-13T08:01:10;2.42;;;1.30;;
44197;SDS011;30157;55.512;37.764;2023-03-13T08:03:47;2.08;;;1.30;;
44197;SDS011;30157;55.512;37.764;2023-03-13T08:06:16;2.85;;;1.30;;
44197;SDS011;30157;55.512;37.764;2023-03-13T08:08:44;2.78;;;1.20;;
44197;SDS011;30157;55.512;37.764;2023-03-13T08:11:14;2.42;;;1.17;;
44197;SDS011;30157;55.512;37.764;2023-03-13T08:13:44;2.00;;;1.27;;
44197;SDS011;30157;55.512;37.764;2023-03-13T08:16:14;3.88;;;1.30;;
44197;SDS011;30157;55.512;37.764;2023-03-13T08:18:41;3.22;;;1.50;;
44197;SDS011;30157;55.512;37.764;2023-03-13T08:21:12;2.47;;;1.20;;
44197;SDS011;30157;55.512;37.764;2023-03-13T08:23:40;2.13;;;1.30;;
44197;SDS011;30157;55.512;37.764;2023-03-13T08:28:33;3.47;;;1.50;;
44197;SDS011;30157;55.512;37.764;2023-03-13T08:31:10;3.05;;;1.40;;
44197;SDS011;30157;55.512;37.764;2023-03-13T08:33:41;3.63;;;1.92;;
44197;SDS011;30157;55.512;37.764;2023-03-13T08:36:09;2.55;;;1.27;;
44197;SDS011;30157;55.512;37.764;2023-03-13T08:38:38;3.20;;;1.20;;
44197;SDS011;30157;55.512;37.764;2023-03-13T08:41:06;5.63;;;1.40;;
44197;SDS011;30157;55.512;37.764;2023-03-13T08:43:33;2.80;;;1.70;;
44197;SDS011;30157;55.512;37.764;2023-03-13T08:45:58;2.92;;;1.20;;
44197;SDS011;30157;55.512;37.764;2023-03-13T08:48:24;3.45;;;1.40;;
44197;SDS011;30157;55.512;37.764;2023-03-13T08:51:02;4.00;;;1.60;;
44197;SDS011;30157;55.512;37.764;2023-03-13T08:53:30;3.03;;;1.38;;
44197;SDS011;30157;55.512;37.764;2023-03-13T08:55:57;2.97;;;1.70;;
44197;SDS011;30157;55.512;37.764;2023-03-13T08:58:23;3.17;;;1.23;;
44197;SDS011;30157;55.512;37.764;2023-03-13T09:00:49;3.78;;;1.80;;
44197;SDS011;30157;55.512;37.764;2023-03-13T09:03:14;4.15;;;1.85;;
44197;SDS011;30157;55.512;37.764;2023-03-13T09:05:41;2.67;;;1.50;;
44197;SDS011;30157;55.512;37.764;2023-03-13T09:08:07;3.58;;;1.55;;
44197;SDS011;30157;55.512;37.764;2023-03-13T09:10:33;3.40;;;1.50;;
44197;SDS011;30157;55.512;37.764;2023-03-13T09:13:00;2.97;;;1.50;;
44197;SDS011;30157;55.512;37.764;2023-03-13T09:15:26;5.75;;;1.60;;
44197;SDS011;30157;55.512;37.764;2023-03-13T09:17:52;2.67;;;1.50;;
44197;SDS011;30157;55.512;37.764;2023-03-13T09:20:17;2.85;;;1.70;;
44197;SDS011;30157;55.512;37.764;2023-03-13T09:22:44;3.03;;;1.77;;
44197;SDS011;30157;55.512;37.764;2023-03-13T09:25:10;3.60;;;1.77;;
44197;SDS011;30157;55.512;37.764;2023-03-13T09:27:36;2.90;;;1.70;;
44197;SDS011;30157;55.512;37.764;2023-03-13T09:30:02;2.88;;;1.60;;
44197;SDS011;30157;55.512;37.764;2023-03-13T09:32:29;2.85;;;1.80;;
44197;SDS011;30157;55.512;37.764;2023-03-13T09:34:54;3.25;;;1.50;;
44197;SDS011;30157;55.512;37.764;2023-03-13T09:37:20;3.72;;;1.50;;
44197;SDS011;30157;55.512;37.764;2023-03-13T09:39:47;5.28;;;1.80;;
44197;SDS011;30157;55.512;37.764;2023-03-13T09:42:17;2.90;;;1.55;;
44197;SDS011;30157;55.512;37.764;2023-03-13T09:44:54;2.65;;;1.40;;
44197;SDS011;30157;55.512;37.764;2023-03-13T09:47:34;3.80;;;1.77;;
44197;SDS011;30157;55.512;37.764;2023-03-13T09:52:46;2.55;;;1.75;;
44197;SDS011;30157;55.512;37.764;2023-03-13T10:06:23;3.55;;;1.80;;
44197;SDS011;30157;55.512;37.764;2023-03-13T10:08:52;2.85;;;1.73;;
44197;SDS011;30157;55.512;37.764;2023-03-13T10:11:29;3.33;;;1.70;;
44197;SDS011;30157;55.512;37.764;2023-03-13T10:16:48;2.58;;;1.42;;
44197;SDS011;30157;55.512;37.764;2023-03-13T10:19:29;2.17;;;1.50;;
44197;SDS011;30157;55.512;37.764;2023-03-13T10:21:59;3.00;;;1.58;;
44197;SDS011;30157;55.512;37.764;2023-03-13T10:24:36;2.92;;;1.58;;
44197;SDS011;30157;55.512;37.764;2023-03-13T10:27:10;2.88;;;1.58;;
44197;SDS011;30157;55.512;37.764;2023-03-13T10:29:38;3.03;;;1.70;;
44197;SDS011;30157;55.512;37.764;2023-03-13T10:32:05;4.25;;;1.40;;
44197;SDS011;30157;55.512;37.764;2023-03-13T10:37:30;3.72;;;1.70;;
44197;SDS011;30157;55.512;37.764;2023-03-13T10:40:40;5.07;;;2.13;;
44197;SDS011;30157;55.512;37.764;2023-03-13T10:42:49;3.25;;;1.60;;
44197;SDS011;30157;55.512;37.764;2023-03-13T10:45:16;2.75;;;1.67;;
44197;SDS011;30157;55.512;37.764;2023-03-13T10:47:44;2.75;;;1.30;;
44197;SDS011;30157;55.512;37.764;2023-03-13T10:50:18;2.97;;;1.50;;
44197;SDS011;30157;55.512;37.764;2023-03-13T10:52:47;2.28;;;1.67;;
44197;SDS011;30157;55.512;37.764;2023-03-13T10:55:21;1.77;;;1.27;;
44197;SDS011;30157;55.512;37.764;2023-03-13T10:58:12;3.20;;;1.60;;
44197;SDS011;30157;55.512;37.764;2023-03-13T11:00:41;2.95;;;1.60;;
44197;SDS011;30157;55.512;37.764;2023-03-13T11:03:18;2.70;;;1.30;;
44197;SDS011;30157;55.512;37.764;2023-03-13T11:05:54;2.60;;;1.42;;
44197;SDS011;30157;55.512;37.764;2023-03-13T11:08:26;4.03;;;1.65;;
44197;SDS011;30157;55.512;37.764;2023-03-13T11:11:00;3.40;;;1.33;;
44197;SDS011;30157;55.512;37.764;2023-03-13T11:16:16;2.75;;;1.42;;
44197;SDS011;30157;55.512;37.764;2023-03-13T11:24:14;2.83;;;1.50;;
44197;SDS011;30157;55.512;37.764;2023-03-13T11:27:20;2.03;;;1.20;;
44197;SDS011;30157;55.512;37.764;2023-03-13T11:32:51;2.65;;;1.48;;
44197;SDS011;30157;55.512;37.764;2023-03-13T11:35:32;4.03;;;2.03;;
44197;SDS011;30157;55.512;37.764;2023-03-13T11:37:59;2.83;;;1.70;;
44197;SDS011;30157;55.512;37.764;2023-03-13T11:43:19;2.55;;;1.63;;
44197;SDS011;30157;55.512;37.764;2023-03-13T11:51:27;2.20;;;1.58;;
44197;SDS011;30157;55.512;37.764;2023-03-13T11:56:57;2.60;;;1.45;;
44197;SDS011;30157;55.512;37.764;2023-03-13T11:59:44;2.38;;;1.20;;
44197;SDS011;30157;55.512;37.764;2023-03-13T12:02:38;3.85;;;1.73;;
44197;SDS011;30157;55.512;37.764;2023-03-13T12:05:10;3.83;;;1.50;;
44197;SDS011;30157;55.512;37.764;2023-03-13T12:10:36;2.78;;;1.40;;
44197;SDS011;30157;55.512;37.764;2023-03-13T12:13:18;2.58;;;1.80;;
44197;SDS011;30157;55.512;37.764;2023-03-13T12:15:57;2.47;;;1.20;;
44197;SDS011;30157;55.512;37.764;2023-03-13T12:18:34;3.15;;;1.10;;
44197;SDS011;30157;55.512;37.764;2023-03-13T12:21:04;3.45;;;1.73;;
44197;SDS011;30157;55.512;37.764;2023-03-13T12:26:20;3.67;;;1.95;;
44197;SDS011;30157;55.512;37.764;2023-03-13T12:32:11;2.95;;;1.60;;
44197;SDS011;30157;55.512;37.764;2023-03-13T12:35:00;2.30;;;1.30;;
44197;SDS011;30157;55.512;37.764;2023-03-13T12:40:23;4.18;;;1.60;;
44197;SDS011;30157;55.512;37.764;2023-03-13T12:43:13;2.33;;;1.40;;
44197;SDS011;30157;55.512;37.764;2023-03-13T12:46:11;2.65;;;1.52;;
44197;SDS011;30157;55.512;37.764;2023-03-13T12:57:04;4.97;;;1.35;;
44197;SDS011;30157;55.512;37.764;2023-03-13T12:59:55;3.53;;;1.42;;
44197;SDS011;30157;55.512;37.764;2023-03-13T13:02:29;1.95;;;1.30;;
44197;SDS011;30157;55.512;37.764;2023-03-13T13:04:56;2.70;;;1.60;;
44197;SDS011;30157;55.512;37.764;2023-03-13T13:07:26;2.17;;;1.27;;
44197;SDS011;30157;55.512;37.764;2023-03-13T13:12:44;2.95;;;1.10;;
44197;SDS011;30157;55.512;37.764;2023-03-13T13:15:30;3.13;;;1.50;;
44197;SDS011;30157;55.512;37.764;2023-03-13T13:18:02;1.85;;;1.15;;
44197;SDS011;30157;55.512;37.764;2023-03-13T13:20:39;3.80;;;1.58;;
44197;SDS011;30157;55.512;37.764;2023-03-13T13:23:29;3.22;;;1.50;;
44197;SDS011;30157;55.512;37.764;2023-03-13T13:26:48;1.83;;;1.25;;
44197;SDS011;30157;55.512;37.764;2023-03-13T13:31:55;2.55;;;1.13;;
44197;SDS011;30157;55.512;37.764;2023-03-13T13:36:58;2.13;;;0.93;;
44197;SDS011;30157;55.512;37.764;2023-03-13T13:39:29;1.98;;;1.17;;
44197;SDS011;30157;55.512;37.764;2023-03-13T13:44:56;1.63;;;1.00;;
44197;SDS011;30157;55.512;37.764;2023-03-13T13:47:27;1.48;;;0.90;;
44197;SDS011;30157;55.512;37.764;2023-03-13T13:49:58;1.98;;;1.25;;
44197;SDS011;30157;55.512;37.764;2023-03-13T13:52:32;2.15;;;0.98;;
44197;SDS011;30157;55.512;37.764;2023-03-13T13:55:00;1.65;;;1.00;;
44197;SDS011;30157;55.512;37.764;2023-03-13T13:57:31;1.83;;;1.00;;
44197;SDS011;30157;55.512;37.764;2023-03-13T14:02:52;1.75;;;1.13;;
44197;SDS011;30157;55.512;37.764;2023-03-13T14:05:20;1.60;;;1.00;;
44197;SDS011;30157;55.512;37.764;2023-03-13T14:10:39;2.65;;;0.93;;
44197;SDS011;30157;55.512;37.764;2023-03-13T14:13:17;2.38;;;1.00;;
44197;SDS011;30157;55.512;37.764;2023-03-13T14:15:48;1.63;;;1.05;;
44197;SDS011;30157;55.512;37.764;2023-03-13T14:20:58;2.25;;;0.95;;
44197;SDS011;30157;55.512;37.764;2023-03-13T14:23:30;2.15;;;0.90;;
44197;SDS011;30157;55.512;37.764;2023-03-13T14:25:56;2.22;;;1.00;;
44197;SDS011;30157;55.512;37.764;2023-03-13T14:28:23;0.95;;;0.60;;
44197;SDS011;30157;55.512;37.764;2023-03-13T14:30:51;1.00;;;0.60;;
44197;SDS011;30157;55.512;37.764;2023-03-13T14:33:18;1.55;;;0.80;;
44197;SDS011;30157;55.512;37.764;2023-03-13T14:35:44;2.17;;;0.85;;
44197;SDS011;30157;55.512;37.764;2023-03-13T14:40:47;1.20;;;0.93;;
44197;SDS011;30157;55.512;37.764;2023-03-13T14:45:51;2.72;;;1.10;;
44197;SDS011;30157;55.512;37.764;2023-03-13T14:48:21;1.92;;;0.90;;
44197;SDS011;30157;55.512;37.764;2023-03-13T14:50:56;1.85;;;1.10;;
44197;SDS011;30157;55.512;37.764;2023-03-13T14:53:39;2.10;;;0.80;;
44197;SDS011;30157;55.512;37.764;2023-03-13T14:56:15;1.85;;;0.77;;
44197;SDS011;30157;55.512;37.764;2023-03-13T14:58:44;1.38;;;0.73;;
44197;SDS011;30157;55.512;37.764;2023-03-13T15:01:22;1.13;;;0.73;;
44197;SDS011;30157;55.512;37.764;2023-03-13T15:03:49;2.30;;;1.13;;
44197;SDS011;30157;55.512;37.764;2023-03-13T15:06:22;1.08;;;0.77;;
44197;SDS011;30157;55.512;37.764;2023-03-13T15:09:40;1.10;;;0.80;;
44197;SDS011;30157;55.512;37.764;2023-03-13T15:11:41;1.88;;;0.90;;
44197;SDS011;30157;55.512;37.764;2023-03-13T15:14:36;1.83;;;0.80;;
44197;SDS011;30157;55.512;37.764;2023-03-13T15:19:34;1.88;;;1.10;;
44197;SDS011;30157;55.512;37.764;2023-03-13T15:22:00;1.55;;;0.95;;
44197;SDS011;30157;55.512;37.764;2023-03-13T15:24:25;2.25;;;1.20;;
44197;SDS011;30157;55.512;37.764;2023-03-13T15:26:51;3.17;;;1.30;;
44197;SDS011;30157;55.512;37.764;2023-03-13T15:29:16;2.58;;;1.23;;
44197;SDS011;30157;55.512;37.764;2023-03-13T15:31:42;3.08;;;1.58;;
44197;SDS011;30157;55.512;37.764;2023-03-13T15:34:12;3.20;;;1.30;;
44197;SDS011;30157;55.512;37.764;2023-03-13T15:36:39;2.60;;;1.48;;
44197;SDS011;30157;55.512;37.764;2023-03-13T15:39:16;3.55;;;1.88;;
44197;SDS011;30157;55.512;37.764;2023-03-13T15:41:46;3.92;;;1.80;;
44197;SDS011;30157;55.512;37.764;2023-03-13T15:44:12;3.13;;;1.60;;
44197;SDS011;30157;55.512;37.764;2023-03-13T15:46:37;4.00;;;1.75;;
44197;SDS011;30157;55.512;37.764;2023-03-13T15:49:03;3.97;;;2.08;;
44197;SDS011;30157;55.512;37.764;2023-03-13T15:51:35;3.92;;;2.00;;
44197;SDS011;30157;55.512;37.764;2023-03-13T15:54:01;3.15;;;1.80;;
44197;SDS011;30157;55.512;37.764;2023-03-13T15:56:27;3.63;;;2.15;;
44197;SDS011;30157;55.512;37.764;2023-03-13T15:58:58;5.30;;;2.22;;
44197;SDS011;30157;55.512;37.764;2023-03-13T16:01:23;4.05;;;2.00;;
44197;SDS011;30157;55.512;37.764;2023-03-13T16:03:49;3.58;;;1.90;;
44197;SDS011;30157;55.512;37.764;2023-03-13T16:06:16;5.82;;;2.70;;
44197;SDS011;30157;55.512;37.764;2023-03-13T16:08:45;6.40;;;2.28;;
44197;SDS011;30157;55.512;37.764;2023-03-13T16:11:12;4.50;;;2.20;;
44197;SDS011;30157;55.512;37.764;2023-03-13T16:13:39;4.13;;;2.58;;
44197;SDS011;30157;55.512;37.764;2023-03-13T16:16:10;4.45;;;2.70;;
44197;SDS011;30157;55.512;37.764;2023-03-13T16:18:43;4.65;;;2.78;;
44197;SDS011;30157;55.512;37.764;2023-03-13T16:21:11;6.68;;;3.97;;
44197;SDS011;30157;55.512;37.764;2023-03-13T16:23:47;7.55;;;3.92;;
44197;SDS011;30157;55.512;37.764;2023-03-13T16:26:15;6.78;;;3.88;;
44197;SDS011;30157;55.512;37.764;2023-03-13T16:28:43;7.70;;;3.70;;
44197;SDS011;30157;55.512;37.764;2023-03-13T16:33:57;5.28;;;3.05;;
44197;SDS011;30157;55.512;37.764;2023-03-13T16:36:28;7.18;;;3.40;;
44197;SDS011;30157;55.512;37.764;2023-03-13T16:38:58;4.55;;;3.17;;
44197;SDS011;30157;55.512;37.764;2023-03-13T16:41:25;4.70;;;3.08;;
44197;SDS011;30157;55.512;37.764;2023-03-13T16:43:52;5.28;;;2.70;;